createdAt,value
2022-11-10T00:00:28.211Z,95819.6
2022-11-10T00:01:30.702Z,95819.6
2022-11-10T00:02:33.199Z,95822.1
2022-11-10T00:03:35.464Z,95821.9
2022-11-10T00:04:37.909Z,95826.4
2022-11-10T00:05:40.218Z,95822.5
2022-11-10T00:06:43.178Z,95825.1
2022-11-10T00:07:46.375Z,95827.4
2022-11-10T00:08:49.380Z,95827.8
2022-11-10T00:09:52.095Z,95827.7
2022-11-10T00:10:54.014Z,95828.1
2022-11-10T00:11:56.489Z,95829.7
2022-11-10T00:12:58.428Z,95828.1
2022-11-10T00:14:00.619Z,95835.2
2022-11-10T00:15:02.281Z,95836.4
2022-11-10T00:16:04.450Z,95838.8
2022-11-10T00:17:06.370Z,95840.2
2022-11-10T00:18:08.842Z,95836.2
2022-11-10T00:19:11.055Z,95838.5
2022-11-10T00:20:13.515Z,95842
2022-11-10T00:21:16.062Z,95838.6
2022-11-10T00:22:18.569Z,95841
2022-11-10T00:23:22.740Z,95843.9
2022-11-10T00:24:25.860Z,95842.8
2022-11-10T00:25:28.041Z,95844.5
2022-11-10T00:26:30.509Z,95845.6
2022-11-10T00:27:33.000Z,95849.5
2022-11-10T00:28:35.185Z,95846.7
2022-11-10T00:29:37.090Z,95845.3
2022-11-10T00:30:40.707Z,95846.2
2022-11-10T00:31:45.468Z,95843.9
2022-11-10T00:32:47.696Z,95843
2022-11-10T00:33:49.888Z,95847.1
2022-11-10T00:34:52.089Z,95849.9
2022-11-10T00:35:54.290Z,95850.7
2022-11-10T00:36:56.251Z,95852.9
2022-11-10T00:37:58.185Z,95855.1
2022-11-10T00:39:00.671Z,95858.8
2022-11-10T00:40:03.155Z,95857.3
2022-11-10T00:41:05.622Z,95857.5
2022-11-10T00:42:07.839Z,95859.4
2022-11-10T00:43:10.049Z,95861.5
2022-11-10T00:44:12.256Z,95862.6
2022-11-10T00:45:14.453Z,95858.9
2022-11-10T00:46:16.364Z,95865.5
2022-11-10T00:47:18.849Z,95866.1
2022-11-10T00:48:21.050Z,95871.7
2022-11-10T00:49:23.521Z,95875
2022-11-10T00:50:25.725Z,95873.2
2022-11-10T00:51:28.210Z,95870.8
2022-11-10T00:52:30.523Z,95872.6
2022-11-10T00:53:32.761Z,95881.3
2022-11-10T00:54:34.700Z,95878.6
2022-11-10T00:55:36.898Z,95880
2022-11-10T00:56:39.091Z,95880.7
2022-11-10T00:57:40.726Z,95878.2
2022-11-10T00:58:42.648Z,95882.1
2022-11-10T00:59:44.856Z,95879.2
2022-11-10T01:00:47.314Z,95884.2
2022-11-10T01:01:49.294Z,95881.2
2022-11-10T01:02:51.809Z,95883.6
2022-11-10T01:03:53.756Z,95884.8
2022-11-10T01:04:56.219Z,95884.2
2022-11-10T01:05:58.147Z,95885.2
2022-11-10T01:07:00.795Z,95879.6
2022-11-10T01:08:03.455Z,95885.6
2022-11-10T01:09:06.009Z,95887.2
2022-11-10T01:10:08.207Z,95888.8
2022-11-10T01:11:10.406Z,95883
2022-11-10T01:12:12.590Z,95884.3
2022-11-10T01:13:15.057Z,95886.4
2022-11-10T01:14:17.532Z,95886.3
2022-11-10T01:16:24.686Z,95888.8
2022-11-10T01:17:27.160Z,95887.7
2022-11-10T01:18:29.094Z,95893.3
2022-11-10T01:19:31.585Z,95892
2022-11-10T01:20:33.482Z,95896.1
2022-11-10T01:21:35.966Z,95889.9
2022-11-10T01:22:38.180Z,95895.8
2022-11-10T01:23:40.721Z,95890.6
2022-11-10T01:24:42.675Z,95894.4
2022-11-10T01:25:45.145Z,95892.2
2022-11-10T01:26:47.342Z,95897.2
2022-11-10T01:27:49.539Z,95894.3
2022-11-10T01:28:51.741Z,95891.8
2022-11-10T01:29:53.659Z,95896
2022-11-10T01:30:56.125Z,95897.4
2022-11-10T01:31:58.321Z,95897.4
2022-11-10T01:33:00.523Z,95895.7
2022-11-10T01:34:02.730Z,95896.5
2022-11-10T01:35:04.946Z,95894.5
2022-11-10T01:36:07.436Z,95892.9
2022-11-10T01:37:09.335Z,95890.3
2022-11-10T01:38:11.877Z,95894.3
2022-11-10T01:39:14.130Z,95898.6
2022-11-10T01:40:16.813Z,95892
2022-11-10T01:41:19.319Z,95896.3
2022-11-10T01:42:21.801Z,95894.2
2022-11-10T01:43:25.043Z,95898.1
2022-11-10T01:44:27.568Z,95894.5
2022-11-10T01:45:30.032Z,95897.8
2022-11-10T01:46:32.522Z,95895.7
2022-11-10T01:47:34.989Z,95893.8
2022-11-10T01:48:36.929Z,95895.6
2022-11-10T01:49:39.397Z,95896.9
2022-11-10T01:50:41.894Z,95901.3
2022-11-10T01:51:43.540Z,95899.2
2022-11-10T01:52:46.015Z,95902.4
2022-11-10T01:53:48.488Z,95903.2
2022-11-10T01:54:51.024Z,95905.9
2022-11-10T01:55:53.520Z,95908.4
2022-11-10T01:56:55.448Z,95908
2022-11-10T01:57:57.914Z,95909.1
2022-11-10T01:59:00.398Z,95906
2022-11-10T02:00:02.618Z,95907
2022-11-10T02:01:04.922Z,95904.8
2022-11-10T02:02:07.200Z,95908.5
2022-11-10T02:03:09.124Z,95906.7
2022-11-10T02:04:11.599Z,95912.1
2022-11-10T02:05:14.077Z,95911.2
2022-11-10T02:06:16.279Z,95908.7
2022-11-10T02:07:18.651Z,95910.4
2022-11-10T02:08:21.113Z,95909.2
2022-11-10T02:09:23.326Z,95910.5
2022-11-10T02:10:25.590Z,95908.2
2022-11-10T02:11:27.811Z,95911.6
2022-11-10T02:12:29.734Z,95912.2
2022-11-10T02:13:31.917Z,95912.3
2022-11-10T02:14:34.384Z,95914.2
2022-11-10T02:15:36.019Z,95910.8
2022-11-10T02:16:38.500Z,95911.6
2022-11-10T02:17:40.398Z,95915.4
2022-11-10T02:18:42.354Z,95910.5
2022-11-10T02:19:44.842Z,95911
2022-11-10T02:20:47.043Z,95909.6
2022-11-10T02:21:49.528Z,95910.7
2022-11-10T02:22:51.752Z,95913.2
2022-11-10T02:23:54.240Z,95910
2022-11-10T02:24:56.144Z,95907.9
2022-11-10T02:25:58.676Z,95911.2
2022-11-10T02:27:01.174Z,95907.6
2022-11-10T02:28:03.378Z,95909.5
2022-11-10T02:29:05.877Z,95906
2022-11-10T02:30:08.360Z,95908.9
2022-11-10T02:31:10.298Z,95910.5
2022-11-10T02:32:12.762Z,95911.1
2022-11-10T02:33:14.986Z,95914
2022-11-10T02:34:17.457Z,95912
2022-11-10T02:35:19.373Z,95915.3
2022-11-10T02:36:21.570Z,95909.2
2022-11-10T02:37:23.486Z,95913.1
2022-11-10T02:38:25.946Z,95912.3
2022-11-10T02:39:28.155Z,95914.1
2022-11-10T02:40:30.682Z,95916
2022-11-10T02:41:33.234Z,95920
2022-11-10T02:42:35.450Z,95916.8
2022-11-10T02:43:37.978Z,95920.5
2022-11-10T02:44:40.144Z,95926.2
2022-11-10T02:45:42.618Z,95928.8
2022-11-10T02:46:45.087Z,95938.6
2022-11-10T02:47:47.560Z,95940.4
2022-11-10T02:48:49.753Z,95942.6
2022-11-10T02:49:51.949Z,95945.1
2022-11-10T02:50:53.869Z,95951.3
2022-11-10T02:51:56.339Z,95952
2022-11-10T02:52:58.840Z,95954.8
2022-11-10T02:54:01.311Z,95961.7
2022-11-10T02:55:03.233Z,95960.3
2022-11-10T02:56:05.712Z,95960.3
2022-11-10T02:57:08.287Z,95965
2022-11-10T02:58:10.514Z,95969
2022-11-10T02:59:12.995Z,95968
2022-11-10T03:00:15.182Z,95972
2022-11-10T03:01:17.670Z,95975.3
2022-11-10T03:02:20.280Z,95982.3
2022-11-10T03:03:24.612Z,95983.4
2022-11-10T03:04:27.495Z,95985.3
2022-11-10T03:05:29.687Z,95985.4
2022-11-10T03:06:32.298Z,95988.8
2022-11-10T03:07:34.590Z,95989.7
2022-11-10T03:08:37.140Z,95989.8
2022-11-10T03:09:39.623Z,95994.3
2022-11-10T03:10:42.082Z,95996.4
2022-11-10T03:11:44.288Z,95996.8
2022-11-10T03:12:46.833Z,96001.7
2022-11-10T03:14:54.315Z,96007.5
2022-11-10T03:15:56.511Z,96009.4
2022-11-10T03:16:58.698Z,96013.7
2022-11-10T03:18:01.168Z,96013.7
2022-11-10T03:19:03.631Z,96018.6
2022-11-10T03:20:06.112Z,96016.4
2022-11-10T03:21:08.330Z,96021.1
2022-11-10T03:22:10.525Z,96024
2022-11-10T03:23:12.998Z,96019.4
2022-11-10T03:24:15.192Z,96023.7
2022-11-10T03:25:17.675Z,96031.7
2022-11-10T03:26:19.609Z,96028.4
2022-11-10T03:27:21.801Z,96037
2022-11-10T03:28:24.341Z,96035
2022-11-10T03:29:26.551Z,96032.8
2022-11-10T03:30:29.040Z,96038.5
2022-11-10T03:31:31.505Z,96044.1
2022-11-10T03:32:33.459Z,96045.6
2022-11-10T03:33:35.689Z,96047.5
2022-11-10T03:34:37.906Z,96050
2022-11-10T03:35:39.545Z,96048.8
2022-11-10T03:36:41.747Z,96044.9
2022-11-10T03:37:44.227Z,96042.8
2022-11-10T03:38:46.421Z,96048.1
2022-11-10T03:39:48.917Z,96047.2
2022-11-10T03:41:56.387Z,96043.3
2022-11-10T03:42:58.588Z,96041.1
2022-11-10T03:44:00.864Z,96041.6
2022-11-10T03:45:02.811Z,96043.7
2022-11-10T03:46:05.286Z,96045.7
2022-11-10T03:47:07.189Z,96049.8
2022-11-10T03:48:09.352Z,96052.9
2022-11-10T03:49:11.292Z,96054.9
2022-11-10T03:50:13.755Z,96054.5
2022-11-10T03:51:15.963Z,96058.5
2022-11-10T03:52:18.187Z,96059.3
2022-11-10T03:53:22.234Z,96057.8
2022-11-10T03:54:24.968Z,96062
2022-11-10T03:55:27.473Z,96065.8
2022-11-10T03:56:29.672Z,96061.8
2022-11-10T03:57:31.607Z,96062.4
2022-11-10T03:58:33.796Z,96064.2
2022-11-10T03:59:36.063Z,96069.5
2022-11-10T04:00:38.557Z,96071
2022-11-10T04:01:40.946Z,96073.8
2022-11-10T04:02:43.310Z,96074.2
2022-11-10T04:04:50.830Z,96072.7
2022-11-10T04:05:53.081Z,96072.2
2022-11-10T04:06:55.610Z,96071
2022-11-10T04:07:57.650Z,96075.4
2022-11-10T04:08:59.564Z,96075.2
2022-11-10T04:10:02.046Z,96073.3
2022-11-10T04:11:04.533Z,96069.4
2022-11-10T04:12:07.497Z,96067.1
2022-11-10T04:13:09.390Z,96070.9
2022-11-10T04:14:11.314Z,96068.2
2022-11-10T04:15:13.855Z,96073.3
2022-11-10T04:16:16.348Z,96075.4
2022-11-10T04:17:18.539Z,96072.1
2022-11-10T04:18:20.744Z,96072
2022-11-10T04:19:23.209Z,96072.4
2022-11-10T04:20:25.681Z,96076.1
2022-11-10T04:21:28.161Z,96075.7
2022-11-10T04:22:30.648Z,96075.7
2022-11-10T04:23:32.823Z,96079.5
2022-11-10T04:24:34.756Z,96080.3
2022-11-10T04:25:36.674Z,96080.4
2022-11-10T04:26:38.603Z,96085.3
2022-11-10T04:27:40.794Z,96081.5
2022-11-10T04:28:42.708Z,96082
2022-11-10T04:29:44.618Z,96082.6
2022-11-10T04:30:47.160Z,96088.1
2022-11-10T04:31:49.654Z,96098.9
2022-11-10T04:32:52.134Z,96097.9
2022-11-10T04:33:54.057Z,96107.2
2022-11-10T04:34:55.999Z,96107.2
2022-11-10T04:35:57.887Z,96108.9
2022-11-10T04:37:00.380Z,96107.3
2022-11-10T04:38:02.568Z,96113.3
2022-11-10T04:39:04.770Z,96119.5
2022-11-10T04:40:06.687Z,96121.1
2022-11-10T04:41:09.163Z,96124.2
2022-11-10T04:42:11.359Z,96129
2022-11-10T04:43:13.568Z,96129.5
2022-11-10T04:44:15.491Z,96129.4
2022-11-10T04:45:17.686Z,96135.1
2022-11-10T04:46:19.932Z,96138.4
2022-11-10T04:47:22.540Z,96137.9
2022-11-10T04:48:24.802Z,96137
2022-11-10T04:49:27.300Z,96135.3
2022-11-10T04:50:29.812Z,96138.4
2022-11-10T04:51:33.183Z,96132.3
2022-11-10T04:52:35.602Z,96136.5
2022-11-10T04:53:38.112Z,96140.4
2022-11-10T04:54:40.582Z,96136.7
2022-11-10T04:55:42.766Z,96133.9
2022-11-10T04:56:44.659Z,96134.2
2022-11-10T04:57:46.894Z,96137.2
2022-11-10T04:58:49.107Z,96136.1
2022-11-10T04:59:51.298Z,96131.2
2022-11-10T05:00:53.900Z,96133.5
2022-11-10T05:01:56.871Z,96140
2022-11-10T05:02:59.101Z,96135.6
2022-11-10T05:04:01.587Z,96138.4
2022-11-10T05:05:03.791Z,96142.4
2022-11-10T05:06:06.249Z,96139.5
2022-11-10T05:07:09.015Z,96141
2022-11-10T05:08:11.273Z,96139.1
2022-11-10T05:09:13.476Z,96146.4
2022-11-10T05:10:15.399Z,96143
2022-11-10T05:11:17.313Z,96141.8
2022-11-10T05:13:25.793Z,96146.6
2022-11-10T05:14:27.729Z,96148.4
2022-11-10T05:15:29.628Z,96146.2
2022-11-10T05:16:32.105Z,96150.6
2022-11-10T05:17:34.401Z,96149.3
2022-11-10T05:18:36.620Z,96153
2022-11-10T05:19:38.816Z,96150
2022-11-10T05:20:40.745Z,96154.7
2022-11-10T05:21:43.207Z,96157.8
2022-11-10T05:23:50.662Z,96154.1
2022-11-10T05:24:52.589Z,96160.2
2022-11-10T05:25:55.062Z,96161.6
2022-11-10T05:26:56.982Z,96166
2022-11-10T05:27:59.171Z,96168.2
2022-11-10T05:29:01.665Z,96172.4
2022-11-10T05:30:03.854Z,96175.2
2022-11-10T05:31:06.042Z,96173
2022-11-10T05:32:08.507Z,96176
2022-11-10T05:33:10.790Z,96176
2022-11-10T05:34:13.272Z,96179.9
2022-11-10T05:35:15.471Z,96181
2022-11-10T05:36:17.943Z,96187.1
2022-11-10T05:37:20.146Z,96184.8
2022-11-10T05:38:22.619Z,96187.4
2022-11-10T05:39:25.091Z,96189.7
2022-11-10T05:40:27.300Z,96190.1
2022-11-10T05:41:29.814Z,96194.9
2022-11-10T05:42:32.049Z,96191.1
2022-11-10T05:43:34.248Z,96197.4
2022-11-10T05:44:36.751Z,96196.8
2022-11-10T05:45:38.701Z,96199.2
2022-11-10T05:46:41.172Z,96202.9
2022-11-10T05:47:43.644Z,96203.7
2022-11-10T05:48:45.904Z,96209.1
2022-11-10T05:49:48.403Z,96209.6
2022-11-10T05:50:50.617Z,96211.4
2022-11-10T05:51:52.955Z,96209.8
2022-11-10T05:52:54.960Z,96213.6
2022-11-10T05:53:57.470Z,96216.8
2022-11-10T05:55:00.001Z,96214.3
2022-11-10T05:56:02.268Z,96214
2022-11-10T05:57:04.196Z,96214.4
2022-11-10T05:58:06.404Z,96218
2022-11-10T05:59:08.318Z,96224
2022-11-10T06:00:10.805Z,96223.4
2022-11-10T06:01:12.471Z,96223.4
2022-11-10T06:02:14.963Z,96224.7
2022-11-10T06:03:17.215Z,96224.3
2022-11-10T06:04:19.588Z,96227.1
2022-11-10T06:05:23.700Z,96227.3
2022-11-10T06:06:28.267Z,96228.9
2022-11-10T06:07:30.463Z,96227.2
2022-11-10T06:08:32.929Z,96232.6
2022-11-10T06:09:35.449Z,96228.3
2022-11-10T06:10:37.683Z,96229.8
2022-11-10T06:11:39.317Z,96237.8
2022-11-10T06:12:41.216Z,96240.9
2022-11-10T06:13:43.697Z,96249.7
2022-11-10T06:14:45.885Z,96250.3
2022-11-10T06:16:53.122Z,96259
2022-11-10T06:17:55.597Z,96265.7
2022-11-10T06:18:58.062Z,96267.4
2022-11-10T06:20:00.627Z,96274.1
2022-11-10T06:21:02.839Z,96277.2
2022-11-10T06:23:10.021Z,96281.8
2022-11-10T06:24:12.226Z,96285.1
2022-11-10T06:25:14.158Z,96290.2
2022-11-10T06:26:16.369Z,96296.4
2022-11-10T06:27:18.833Z,96298.7
2022-11-10T06:28:21.004Z,96297.9
2022-11-10T06:30:27.931Z,96306.5
2022-11-10T06:31:30.436Z,96307.4
2022-11-10T06:32:32.364Z,96309.9
2022-11-10T06:33:34.583Z,96310.8
2022-11-10T06:34:37.064Z,96314.7
2022-11-10T06:35:39.053Z,96319.4
2022-11-10T06:36:41.265Z,96317.8
2022-11-10T06:37:43.187Z,96315.4
2022-11-10T06:38:45.363Z,96317.6
2022-11-10T06:39:47.563Z,96311.7
2022-11-10T06:40:49.740Z,96313.5
2022-11-10T06:41:51.939Z,96311.6
2022-11-10T06:42:54.140Z,96313.1
2022-11-10T06:43:56.085Z,96314.1
2022-11-10T06:44:58.575Z,96312.2
2022-11-10T06:46:00.495Z,96313.6
2022-11-10T06:47:02.792Z,96318.8
2022-11-10T06:48:04.728Z,96323.6
2022-11-10T06:49:06.663Z,96324.8
2022-11-10T06:50:08.599Z,96325.9
2022-11-10T06:51:10.841Z,96330.1
2022-11-10T06:52:13.335Z,96330.8
2022-11-10T06:53:15.265Z,96332.4
2022-11-10T06:54:17.734Z,96331.4
2022-11-10T06:55:20.221Z,96331.6
2022-11-10T06:56:22.424Z,96329.9
2022-11-10T06:57:24.898Z,96338.4
2022-11-10T06:58:26.845Z,96335.4
2022-11-10T06:59:29.312Z,96341.4
2022-11-10T07:00:31.928Z,96343.8
2022-11-10T07:01:34.353Z,96349
2022-11-10T07:02:36.950Z,96349.4
2022-11-10T07:04:44.142Z,96354.3
2022-11-10T07:05:46.345Z,96359.2
2022-11-10T07:06:49.289Z,96357.1
2022-11-10T07:07:51.880Z,96359.2
2022-11-10T07:08:54.091Z,96362.7
2022-11-10T07:09:56.293Z,96357.1
2022-11-10T07:10:58.484Z,96362.5
2022-11-10T07:12:00.685Z,96366.2
2022-11-10T07:13:02.887Z,96363.8
2022-11-10T07:14:05.375Z,96369.7
2022-11-10T07:15:07.286Z,96371.5
2022-11-10T07:16:09.487Z,96369.5
2022-11-10T07:17:11.687Z,96375.8
2022-11-10T07:18:13.637Z,96374.7
2022-11-10T07:19:16.105Z,96379.4
2022-11-10T07:20:18.602Z,96384.8
2022-11-10T07:21:20.517Z,96391.4
2022-11-10T07:22:23.072Z,96395
2022-11-10T07:23:26.100Z,96392.1
2022-11-10T07:24:28.282Z,96398.8
2022-11-10T07:25:30.750Z,96395
2022-11-10T07:26:33.231Z,96396.5
2022-11-10T07:27:35.719Z,96402.8
2022-11-10T07:28:38.198Z,96404.1
2022-11-10T07:29:40.664Z,96404.8
2022-11-10T07:30:43.168Z,96406.9
2022-11-10T07:31:45.344Z,96404.8
2022-11-10T07:32:47.252Z,96412.5
2022-11-10T07:34:54.186Z,96413.5
2022-11-10T07:35:56.384Z,96414.9
2022-11-10T07:36:58.293Z,96412.9
2022-11-10T07:38:00.847Z,96414.4
2022-11-10T07:39:03.338Z,96415.4
2022-11-10T07:40:05.819Z,96420.3
2022-11-10T07:41:08.293Z,96419
2022-11-10T07:42:10.504Z,96416
2022-11-10T07:43:12.458Z,96422
2022-11-10T07:44:14.665Z,96418.4
2022-11-10T07:45:17.138Z,96415.1
2022-11-10T07:46:19.081Z,96417.2
2022-11-10T07:47:20.999Z,96417.8
2022-11-10T07:48:22.906Z,96423.5
2022-11-10T07:49:25.135Z,96425.5
2022-11-10T07:50:27.546Z,96427.3
2022-11-10T07:51:29.745Z,96433.3
2022-11-10T07:52:32.234Z,96433.8
2022-11-10T07:53:34.750Z,96432
2022-11-10T07:54:37.264Z,96433.1
2022-11-10T07:55:39.183Z,96432.3
2022-11-10T07:56:41.673Z,96434.6
2022-11-10T07:57:43.588Z,96434.7
2022-11-10T07:58:45.792Z,96435.5
2022-11-10T07:59:48.285Z,96439
2022-11-10T08:00:55.232Z,96436.8
2022-11-10T08:01:58.029Z,96442.4
2022-11-10T08:03:00.650Z,96439.9
2022-11-10T08:04:02.859Z,96442
2022-11-10T08:05:05.354Z,96438.1
2022-11-10T08:06:07.547Z,96438.8
2022-11-10T08:07:10.302Z,96440.7
2022-11-10T08:08:12.971Z,96438.6
2022-11-10T08:09:15.227Z,96437.7
2022-11-10T08:10:17.441Z,96441.2
2022-11-10T08:11:19.909Z,96441.1
2022-11-10T08:12:22.113Z,96445.5
2022-11-10T08:13:25.998Z,96446.7
2022-11-10T08:14:27.913Z,96447.7
2022-11-10T08:15:30.391Z,96442
2022-11-10T08:16:32.883Z,96441.3
2022-11-10T08:17:35.381Z,96445.3
2022-11-10T08:18:37.877Z,96444.5
2022-11-10T08:19:40.344Z,96448.6
2022-11-10T08:20:42.865Z,96448.2
2022-11-10T08:21:44.807Z,96449.9
2022-11-10T08:22:47.025Z,96453
2022-11-10T08:23:49.235Z,96452.4
2022-11-10T08:24:51.783Z,96454.2
2022-11-10T08:25:54.279Z,96451.3
2022-11-10T08:26:56.766Z,96456
2022-11-10T08:27:59.236Z,96458.1
2022-11-10T08:29:01.419Z,96462.5
2022-11-10T08:30:03.605Z,96461.8
2022-11-10T08:31:07.360Z,96462.2
2022-11-10T08:32:09.271Z,96463.5
2022-11-10T08:33:11.769Z,96462.3
2022-11-10T08:34:14.050Z,96460.6
2022-11-10T08:35:16.536Z,96465
2022-11-10T08:36:18.767Z,96460.4
2022-11-10T08:37:20.153Z,96462.1
2022-11-10T08:38:22.069Z,96460.7
2022-11-10T08:40:29.881Z,96461.7
2022-11-10T08:41:32.114Z,96466.4
2022-11-10T08:42:34.601Z,96469.7
2022-11-10T08:43:36.807Z,96467.8
2022-11-10T08:44:38.728Z,96466
2022-11-10T08:45:40.960Z,96468.1
2022-11-10T08:46:42.866Z,96465.9
2022-11-10T08:47:45.352Z,96466.8
2022-11-10T08:48:47.840Z,96469.3
2022-11-10T08:49:50.050Z,96470
2022-11-10T08:50:52.013Z,96474.1
2022-11-10T08:51:53.952Z,96476.4
2022-11-10T08:52:55.875Z,96478.3
2022-11-10T08:53:58.389Z,96478.7
2022-11-10T08:55:00.598Z,96480.8
2022-11-10T08:56:03.197Z,96480.3
2022-11-10T08:57:05.712Z,96477.8
2022-11-10T08:58:07.925Z,96482.3
2022-11-10T08:59:10.126Z,96489.9
2022-11-10T09:00:12.324Z,96497.8
2022-11-10T09:01:14.826Z,96499.1
2022-11-10T09:02:17.049Z,96497.5
2022-11-10T09:03:20.135Z,96503
2022-11-10T09:04:23.270Z,96503.8
2022-11-10T09:05:25.783Z,96502.6
2022-11-10T09:06:28.275Z,96504.1
2022-11-10T09:07:30.499Z,96507.3
2022-11-10T09:08:32.991Z,96505
2022-11-10T09:09:35.491Z,96508.6
2022-11-10T09:10:37.704Z,96511.2
2022-11-10T09:11:40.578Z,96514.9
2022-11-10T09:12:43.106Z,96513.4
2022-11-10T09:13:45.310Z,96517.8
2022-11-10T09:14:47.813Z,96521.9
2022-11-10T09:15:50.288Z,96525.3
2022-11-10T09:16:52.792Z,96523.1
2022-11-10T09:17:54.721Z,96524
2022-11-10T09:18:56.907Z,96524.9
2022-11-10T09:19:59.625Z,96529.5
2022-11-10T09:21:01.996Z,96530.4
2022-11-10T09:22:04.215Z,96529.2
2022-11-10T09:23:06.743Z,96531.5
2022-11-10T09:24:09.246Z,96537.4
2022-11-10T09:25:11.722Z,96531.1
2022-11-10T09:26:14.213Z,96538.6
2022-11-10T09:27:16.503Z,96536.6
2022-11-10T09:28:19.000Z,96546.1
2022-11-10T09:29:21.243Z,96542.6
2022-11-10T09:30:23.051Z,96546.3
2022-11-10T09:31:25.830Z,96548.3
2022-11-10T09:32:28.324Z,96548.5
2022-11-10T09:33:30.539Z,96548.7
2022-11-10T09:34:32.787Z,96549.9
2022-11-10T09:35:34.450Z,96547.2
2022-11-10T09:36:36.953Z,96546.9
2022-11-10T09:37:39.442Z,96551.2
2022-11-10T09:38:41.962Z,96550.3
2022-11-10T09:39:44.156Z,96552.1
2022-11-10T09:40:46.639Z,96547.2
2022-11-10T09:41:49.116Z,96552.8
2022-11-10T09:42:51.673Z,96550.3
2022-11-10T09:43:54.157Z,96557.3
2022-11-10T09:44:56.636Z,96559.1
2022-11-10T09:45:58.834Z,96559.1
2022-11-10T09:47:01.060Z,96553.8
2022-11-10T09:48:02.721Z,96555.2
2022-11-10T09:49:04.641Z,96554.4
2022-11-10T09:50:06.871Z,96556.5
2022-11-10T09:51:08.803Z,96560.4
2022-11-10T09:52:10.997Z,96555.5
2022-11-10T09:53:13.471Z,96560
2022-11-10T09:54:15.964Z,96562.3
2022-11-10T09:55:18.494Z,96563.4
2022-11-10T09:56:20.978Z,96558.9
2022-11-10T09:57:23.181Z,96560.5
2022-11-10T09:58:26.218Z,96556.8
2022-11-10T09:59:28.718Z,96561.6
2022-11-10T10:00:30.913Z,96559.6
2022-11-10T10:01:33.105Z,96563.8
2022-11-10T10:02:35.096Z,96564
2022-11-10T10:03:37.313Z,96567.3
2022-11-10T10:05:44.928Z,96566.6
2022-11-10T10:07:51.547Z,96576.3
2022-11-10T10:08:54.170Z,96575.4
2022-11-10T10:09:56.662Z,96570.5
2022-11-10T10:10:59.138Z,96568.4
2022-11-10T10:12:01.608Z,96567.6
2022-11-10T10:13:04.092Z,96576.1
2022-11-10T10:14:06.411Z,96582.8
2022-11-10T10:15:08.917Z,96584.1
2022-11-10T10:16:11.935Z,96581.9
2022-11-10T10:17:13.587Z,96583.1
2022-11-10T10:18:16.062Z,96584.6
2022-11-10T10:19:18.045Z,96582
2022-11-10T10:20:20.654Z,96581.5
2022-11-10T10:21:22.867Z,96587
2022-11-10T10:22:25.348Z,96584.8
2022-11-10T10:24:32.586Z,96590.8
2022-11-10T10:25:35.118Z,96587.2
2022-11-10T10:26:37.601Z,96591.9
2022-11-10T10:27:39.799Z,96591.2
2022-11-10T10:28:41.746Z,96594.4
2022-11-10T10:29:44.019Z,96593.7
2022-11-10T10:30:46.249Z,96590.9
2022-11-10T10:31:48.183Z,96593
2022-11-10T10:32:50.660Z,96590.1
2022-11-10T10:33:53.166Z,96589.8
2022-11-10T10:34:55.418Z,96590.9
2022-11-10T10:35:57.383Z,96592.7
2022-11-10T10:36:59.895Z,96589.6
2022-11-10T10:38:01.847Z,96586.5
2022-11-10T10:39:04.051Z,96585.5
2022-11-10T10:40:06.262Z,96584
2022-11-10T10:41:08.798Z,96578.1
2022-11-10T10:42:25.659Z,96573.6
2022-11-10T10:43:27.870Z,96574.1
2022-11-10T10:44:30.370Z,96571.9
2022-11-10T10:45:33.196Z,96575.6
2022-11-10T10:46:37.134Z,96580
2022-11-10T10:47:39.619Z,96582.9
2022-11-10T10:48:41.964Z,96583.3
2022-11-10T10:49:44.187Z,96588.6
2022-11-10T10:50:46.669Z,96592.9
2022-11-10T10:51:48.330Z,96590
2022-11-10T10:52:50.531Z,96595.3
2022-11-10T10:53:52.170Z,96596.7
2022-11-10T10:54:54.371Z,96595.9
2022-11-10T10:55:56.589Z,96592.1
2022-11-10T10:56:58.510Z,96595.3
2022-11-10T10:58:00.742Z,96598.7
2022-11-10T10:59:03.257Z,96603.2
2022-11-10T11:00:05.744Z,96599.8
2022-11-10T11:01:08.600Z,96602.7
2022-11-10T11:02:11.204Z,96601.6
2022-11-10T11:03:13.162Z,96599
2022-11-10T11:04:15.642Z,96602
2022-11-10T11:05:18.123Z,96601.1
2022-11-10T11:06:19.794Z,96602.1
2022-11-10T11:07:21.718Z,96599.6
2022-11-10T11:08:25.673Z,96600.4
2022-11-10T11:09:27.507Z,96605
2022-11-10T11:10:29.725Z,96602
2022-11-10T11:11:31.957Z,96603.5
2022-11-10T11:12:33.951Z,96602.7
2022-11-10T11:13:36.153Z,96604.3
2022-11-10T11:15:43.349Z,96605
2022-11-10T11:16:45.897Z,96605.3
2022-11-10T11:17:48.571Z,96611.2
2022-11-10T11:18:50.585Z,96610.6
2022-11-10T11:20:57.778Z,96620.6
2022-11-10T11:21:59.984Z,96622.6
2022-11-10T11:23:01.953Z,96620.2
2022-11-10T11:24:04.157Z,96620.8
2022-11-10T11:25:06.446Z,96625.4
2022-11-10T11:26:08.652Z,96623.9
2022-11-10T11:27:10.582Z,96619.9
2022-11-10T11:28:12.817Z,96625.5
2022-11-10T11:29:15.095Z,96618.7
2022-11-10T11:30:17.289Z,96623.3
2022-11-10T11:31:18.928Z,96623.8
2022-11-10T11:32:20.923Z,96621.2
2022-11-10T11:33:23.138Z,96625.5
2022-11-10T11:34:24.792Z,96622.1
2022-11-10T11:35:27.273Z,96622.9
2022-11-10T11:36:29.764Z,96627.4
2022-11-10T11:37:31.964Z,96629.4
2022-11-10T11:38:34.196Z,96627.7
2022-11-10T11:39:36.166Z,96625
2022-11-10T11:40:38.653Z,96623.4
2022-11-10T11:41:40.854Z,96618.2
2022-11-10T11:42:42.793Z,96616.3
2022-11-10T11:43:44.733Z,96615.9
2022-11-10T11:44:47.262Z,96618.3
2022-11-10T11:45:49.779Z,96618.5
2022-11-10T11:46:52.538Z,96619.1
2022-11-10T11:47:55.100Z,96618.1
2022-11-10T11:48:57.332Z,96614.2
2022-11-10T11:49:59.263Z,96609.4
2022-11-10T11:51:01.212Z,96612.1
2022-11-10T11:52:03.394Z,96609.1
2022-11-10T11:53:05.887Z,96611.4
2022-11-10T11:54:08.365Z,96610.9
2022-11-10T11:55:10.602Z,96613.1
2022-11-10T11:56:12.814Z,96613.6
2022-11-10T11:57:15.052Z,96612.7
2022-11-10T11:58:17.521Z,96609.7
2022-11-10T11:59:19.786Z,96606.1
2022-11-10T12:00:22.024Z,96605.4
2022-11-10T12:01:24.247Z,96606.5
2022-11-10T12:02:26.761Z,96607.4
2022-11-10T12:03:29.464Z,96598.8
2022-11-10T12:04:31.697Z,96600.9
2022-11-10T12:05:34.189Z,96602.2
2022-11-10T12:06:36.836Z,96602.5
2022-11-10T12:07:39.395Z,96603.5
2022-11-10T12:08:41.594Z,96600.8
2022-11-10T12:09:43.508Z,96597.1
2022-11-10T12:10:45.711Z,96602.1
2022-11-10T12:11:47.924Z,96603.1
2022-11-10T12:12:49.854Z,96604.9
2022-11-10T12:13:51.792Z,96604.9
2022-11-10T12:14:54.290Z,96604.4
2022-11-10T12:15:55.963Z,96605.7
2022-11-10T12:16:58.459Z,96603.8
2022-11-10T12:18:00.937Z,96601.7
2022-11-10T12:19:03.478Z,96600.7
2022-11-10T12:20:05.969Z,96603.5
2022-11-10T12:21:08.457Z,96602
2022-11-10T12:22:10.930Z,96606.5
2022-11-10T12:23:13.159Z,96600.7
2022-11-10T12:24:15.424Z,96605.9
2022-11-10T12:25:17.345Z,96604.7
2022-11-10T12:26:19.545Z,96606.2
2022-11-10T12:27:22.033Z,96601.1
2022-11-10T12:28:26.552Z,96604
2022-11-10T12:29:28.475Z,96606
2022-11-10T12:30:30.987Z,96600.9
2022-11-10T12:31:33.206Z,96600
2022-11-10T12:32:35.127Z,96604
2022-11-10T12:33:37.336Z,96601.3
2022-11-10T12:34:39.613Z,96604.8
2022-11-10T12:35:41.841Z,96601.5
2022-11-10T12:36:44.048Z,96601.5
2022-11-10T12:37:45.973Z,96603.6
2022-11-10T12:38:48.210Z,96601.6
2022-11-10T12:39:50.695Z,96595.8
2022-11-10T12:40:52.903Z,96593.5
2022-11-10T12:41:55.176Z,96594.1
2022-11-10T12:42:57.662Z,96590.9
2022-11-10T12:43:59.863Z,96592
2022-11-10T12:45:02.092Z,96593.4
2022-11-10T12:46:04.617Z,96589.1
2022-11-10T12:47:06.823Z,96585.7
2022-11-10T12:48:09.316Z,96586.9
2022-11-10T12:49:11.516Z,96583.6
2022-11-10T12:50:14.086Z,96585.2
2022-11-10T12:51:16.718Z,96585.1
2022-11-10T12:52:18.944Z,96585.7
2022-11-10T12:53:21.179Z,96586.7
2022-11-10T12:54:23.409Z,96585.9
2022-11-10T12:55:25.621Z,96591.9
2022-11-10T12:56:27.621Z,96597.6
2022-11-10T12:57:29.841Z,96595.7
2022-11-10T12:58:31.807Z,96599.1